METAR Data
IDs: Format: Raw Decoded Include TAF

Data at: 2057 UTC 18 Sep 2018

KSTL 182051Z VRB03KT 10SM FEW060 FEW100 SCT250 34/18 A2991 RMK AO2 SLP115 T03390178 58014
KSTL 181951Z 35003KT 10SM SCT070 SCT100 SCT250 34/18 A2993 RMK AO2 SLP120 T03390183
KSTL 181851Z 25006KT 10SM SCT050 SCT080 34/17 A2994 RMK AO2 SLP124 T03390172
KSTL 181751Z VRB03KT 10SM SCT045 SCT080 33/19 A2995 RMK AO2 SLP128 T03330189 10333 20233 58009
KSTL 181651Z 00000KT 10SM SCT042 33/20 A2997 RMK AO2 SLP133 T03280200
KSTL 181551Z 22004KT 10SM FEW080 31/22 A2997 RMK AO2 SLP136 ACC E-S T03110217
KSTL 181451Z 28004KT 10SM FEW080 30/22 A2998 RMK AO2 SLP139 ACC SE T03000217 58001
KSTL 181351Z 26005KT 10SM FEW080 28/22 A2999 RMK AO2 SLP141 ACC SE-S T02780217
KSTL 181251Z 29003KT 10SM SCT080 25/22 A2999 RMK AO2 SLP143 ACC NW-SW AND OHD T02500217
KSTL 181151Z 25004KT 10SM SCT080 24/21 A2999 RMK AO2 SLP141 ACC ALQDS T02390211 10261 20233 53006
KSTL 181051Z 00000KT 10SM SCT070 24/21 A2998 RMK AO2 SLP137 T02390211
KSTL 180951Z 00000KT 10SM FEW070 23/21 A2997 RMK AO2 SLP134 T02330211
KSTL 180851Z 00000KT 10SM FEW070 24/21 A2997 RMK AO2 SLP133 T02440206 56001
KSTL 180751Z 00000KT 10SM FEW075 24/21 A2997 RMK AO2 SLP133 T02440206
KSTL 180651Z 00000KT 10SM CLR 25/21 A2997 RMK AO2 SLP134 T02500211
KSTL 180551Z 23003KT 10SM CLR 26/21 A2997 RMK AO2 SLP134 T02610211 10311 20250 403440222 51004
KSTL 180451Z 26003KT 10SM FEW250 26/21 A2997 RMK AO2 SLP133 T02610211
KSTL 180351Z 25004KT 10SM FEW250 27/21 A2997 RMK AO2 SLP133 T02670211
KSTL 180251Z 26006KT 10SM FEW110 SCT250 28/21 A2996 RMK AO2 SLP131 T02780206 53012
KSTL 180151Z 24006KT 10SM SCT110 BKN250 29/21 A2995 RMK AO2 SLP128 T02890206
KSTL 180051Z 25005KT 10SM SCT110 BKN250 30/20 A2993 RMK AO2 SLP122 T03000200
KSTL 172351Z 26006KT 10SM FEW055 SCT110 BKN250 31/19 A2992 RMK AO2 SLP120 T03110194 10344 20311 53002
KSTL 172251Z 23008KT 10SM FEW060 SCT110 SCT250 33/19 A2992 RMK AO2 SLP117 T03280189
KSTL 172151Z 26009KT 10SM FEW060 SCT100 33/18 A2991 RMK AO2 SLP117 T03330178
KSTL 172051Z 26009KT 10SM FEW060 SCT100 34/18 A2992 RMK AO2 SLP116 T03390183 56016
KSTL 171951Z 25007G18KT 210V280 10SM FEW060 SCT100 34/18 A2992 RMK AO2 SLP118 T03390183
KSTL 171851Z 29005KT 10SM SCT055 34/18 A2994 RMK AO2 SLP125 T03390183
KSTL 171751Z 22005KT 10SM SCT060 33/19 A2996 RMK AO2 SLP133 T03280194 10333 20222 58007
KSTL 171651Z 32007KT 10SM FEW080 32/20 A2998 RMK AO2 SLP138 T03220200
KSTL 171551Z 31005KT 10SM FEW080 31/22 A2999 RMK AO2 SLP142 ACC N AND S T03110217
KSTL 171451Z 30004KT 10SM SCT080 28/22 A2999 RMK AO2 SLP141 ACC N AND S T02830222 51008
KSTL 171351Z 28005KT 9SM FEW070 26/22 A2998 RMK AO2 SLP140 ACC S T02610217
KSTL 171251Z 00000KT 9SM FEW070 24/22 A2998 RMK AO2 SLP137 T02440217
KSTL 171151Z 26003KT 9SM FEW070 23/21 A2996 RMK AO2 SLP134 T02280211 10250 20222 53003
KSTL 171051Z 30003KT 10SM CLR 22/21 A2996 RMK AO2 SLP130 T02220211
KSTL 170951Z 23003KT 10SM CLR 22/21 A2995 RMK AO2 SLP130 T02220206